createdAt,value
2019-03-11T00:00:35.569Z,888.18
2019-03-11T00:01:35.552Z,888.18
2019-03-11T00:02:35.535Z,888.16
2019-03-11T00:03:35.522Z,888.15
2019-03-11T00:04:35.507Z,888.18
2019-03-11T00:05:35.490Z,888.17
2019-03-11T00:06:35.484Z,888.17
2019-03-11T00:07:35.458Z,888.21
2019-03-11T00:08:35.441Z,888.21
2019-03-11T00:09:35.429Z,888.32
2019-03-11T00:10:35.411Z,888.34
2019-03-11T00:11:35.397Z,888.40
2019-03-11T00:12:35.381Z,888.43
2019-03-11T00:13:35.362Z,888.43
2019-03-11T00:14:35.349Z,888.48
2019-03-11T00:15:35.335Z,888.52
2019-03-11T00:16:35.316Z,888.54
2019-03-11T00:17:35.301Z,888.55
2019-03-11T00:18:35.288Z,888.53
2019-03-11T00:19:35.268Z,888.59
2019-03-11T00:20:35.256Z,888.57
2019-03-11T00:21:35.240Z,888.55
2019-03-11T00:22:35.239Z,888.50
2019-03-11T00:23:35.202Z,888.55
2019-03-11T00:24:35.186Z,888.57
2019-03-11T00:25:35.173Z,888.56
2019-03-11T00:26:35.161Z,888.54
2019-03-11T00:27:35.142Z,888.57
2019-03-11T00:28:35.123Z,888.59
2019-03-11T00:29:35.117Z,888.56
2019-03-11T00:30:35.096Z,888.59
2019-03-11T00:31:35.075Z,888.58
2019-03-11T00:32:35.061Z,888.62
2019-03-11T00:33:35.050Z,888.71
2019-03-11T00:34:35.027Z,888.70
2019-03-11T00:35:35.012Z,888.66
2019-03-11T00:36:35.000Z,888.58
2019-03-11T00:37:34.976Z,888.60
2019-03-11T00:38:34.965Z,888.66
2019-03-11T00:39:34.951Z,888.67
2019-03-11T00:40:34.931Z,888.71
2019-03-11T00:41:34.917Z,888.74
2019-03-11T00:42:34.900Z,888.71
2019-03-11T00:43:34.888Z,888.74
2019-03-11T00:44:34.866Z,888.73
2019-03-11T00:45:34.859Z,888.75
2019-03-11T00:46:34.842Z,888.71
2019-03-11T00:47:34.821Z,888.72
2019-03-11T00:48:34.806Z,888.71
2019-03-11T00:49:34.789Z,888.74
2019-03-11T00:50:34.773Z,888.73
2019-03-11T00:51:34.757Z,888.75
2019-03-11T00:52:34.803Z,888.73
2019-03-11T00:53:34.729Z,888.72
2019-03-11T00:54:34.713Z,888.78
2019-03-11T00:55:34.697Z,888.75
2019-03-11T00:56:34.684Z,888.83
2019-03-11T00:57:34.663Z,888.76
2019-03-11T00:58:34.645Z,888.74
2019-03-11T00:59:34.626Z,888.79
2019-03-11T01:00:34.619Z,888.78
2019-03-11T01:01:34.603Z,888.79
2019-03-11T01:02:34.586Z,888.72
2019-03-11T01:03:34.562Z,888.77
2019-03-11T01:04:34.546Z,888.84
2019-03-11T01:05:34.533Z,888.79
2019-03-11T01:06:34.537Z,888.83
2019-03-11T01:07:34.502Z,888.85
2019-03-11T01:08:34.487Z,888.83
2019-03-11T01:09:34.471Z,888.87
2019-03-11T01:10:34.456Z,888.86
2019-03-11T01:11:34.437Z,888.79
2019-03-11T01:12:34.420Z,888.83
2019-03-11T01:13:34.408Z,888.85
2019-03-11T01:14:35.954Z,888.88
2019-03-11T01:15:34.373Z,888.89
2019-03-11T01:16:34.356Z,888.88
2019-03-11T01:17:34.345Z,888.94
2019-03-11T01:18:34.329Z,888.91
2019-03-11T01:19:34.312Z,888.93
2019-03-11T01:20:34.293Z,888.93
2019-03-11T01:21:34.276Z,888.91
2019-03-11T01:22:34.263Z,889.00
2019-03-11T01:23:34.243Z,889.02
2019-03-11T01:24:34.232Z,888.98
2019-03-11T01:25:34.212Z,888.98
2019-03-11T01:26:34.197Z,888.98
2019-03-11T01:27:34.179Z,888.98
2019-03-11T01:28:34.163Z,888.99
2019-03-11T01:29:34.149Z,888.99
2019-03-11T01:30:34.138Z,888.97
2019-03-11T01:31:34.150Z,888.98
2019-03-11T01:32:34.103Z,888.95
2019-03-11T01:33:34.079Z,888.98
2019-03-11T01:34:34.068Z,889.00
2019-03-11T01:35:34.118Z,888.98
2019-03-11T01:36:34.035Z,889.00
2019-03-11T01:37:34.026Z,888.99
2019-03-11T01:38:34.000Z,888.98
2019-03-11T01:39:33.984Z,889.00
2019-03-11T01:40:33.965Z,888.93
2019-03-11T01:41:33.956Z,888.89
2019-03-11T01:42:33.940Z,888.85
2019-03-11T01:43:33.929Z,888.88
2019-03-11T01:44:33.904Z,888.91
2019-03-11T01:45:33.891Z,888.91
2019-03-11T01:46:33.872Z,888.85
2019-03-11T01:47:33.859Z,888.78
2019-03-11T01:48:33.886Z,888.74
2019-03-11T01:49:33.822Z,888.79
2019-03-11T01:50:33.806Z,888.82
2019-03-11T01:51:33.790Z,888.87
2019-03-11T01:52:33.785Z,888.84
2019-03-11T01:53:33.765Z,888.86
2019-03-11T01:54:33.747Z,888.86
2019-03-11T01:55:33.737Z,888.85
2019-03-11T01:56:33.711Z,888.84
2019-03-11T01:57:33.693Z,888.80
2019-03-11T01:58:33.676Z,888.82
2019-03-11T01:59:33.663Z,888.84
2019-03-11T02:00:33.649Z,888.84
2019-03-11T02:01:33.642Z,888.83
2019-03-11T02:02:33.612Z,888.82
2019-03-11T02:03:33.597Z,888.78
2019-03-11T02:04:33.581Z,888.81
2019-03-11T02:05:33.572Z,888.78
2019-03-11T02:06:33.550Z,888.77
2019-03-11T02:07:33.535Z,888.74
2019-03-11T02:08:33.519Z,888.72
2019-03-11T02:09:33.509Z,888.69
2019-03-11T02:10:33.489Z,888.65
2019-03-11T02:11:33.472Z,888.63
2019-03-11T02:12:33.462Z,888.60
2019-03-11T02:13:33.446Z,888.59
2019-03-11T02:14:33.422Z,888.60
2019-03-11T02:15:33.404Z,888.60
2019-03-11T02:16:33.388Z,888.58
2019-03-11T02:17:33.376Z,888.57
2019-03-11T02:18:33.349Z,888.58
2019-03-11T02:19:33.340Z,888.59
2019-03-11T02:20:33.318Z,888.57
2019-03-11T02:21:33.310Z,888.57
2019-03-11T02:22:33.292Z,888.54
2019-03-11T02:23:33.276Z,888.59
2019-03-11T02:24:33.269Z,888.53
2019-03-11T02:25:33.246Z,888.52
2019-03-11T02:26:33.229Z,888.50
2019-03-11T02:27:33.226Z,888.52
2019-03-11T02:28:33.192Z,888.56
2019-03-11T02:29:33.179Z,888.57
2019-03-11T02:30:33.164Z,888.54
2019-03-11T02:31:33.144Z,888.56
2019-03-11T02:32:33.131Z,888.59
2019-03-11T02:33:33.112Z,888.60
2019-03-11T02:34:33.101Z,888.61
2019-03-11T02:35:33.079Z,888.58
2019-03-11T02:36:33.065Z,888.55
2019-03-11T02:37:33.053Z,888.57
2019-03-11T02:38:33.037Z,888.57
2019-03-11T02:39:33.021Z,888.54
2019-03-11T02:40:32.999Z,888.56
2019-03-11T02:41:32.979Z,888.55
2019-03-11T02:42:32.964Z,888.60
2019-03-11T02:43:32.960Z,888.58
2019-03-11T02:44:32.938Z,888.53
2019-03-11T02:45:32.930Z,888.57
2019-03-11T02:46:32.904Z,888.56
2019-03-11T02:47:32.886Z,888.53
2019-03-11T02:48:32.871Z,888.56
2019-03-11T02:49:32.884Z,888.60
2019-03-11T02:50:32.838Z,888.60
2019-03-11T02:51:32.821Z,888.58
2019-03-11T02:52:32.806Z,888.58
2019-03-11T02:53:32.798Z,888.56
2019-03-11T02:54:32.774Z,888.56
2019-03-11T02:55:32.756Z,888.50
2019-03-11T02:56:32.747Z,888.50
2019-03-11T02:57:32.723Z,888.53
2019-03-11T02:58:32.704Z,888.52
2019-03-11T02:59:32.719Z,888.53
2019-03-11T03:00:32.677Z,888.48
2019-03-11T03:01:32.660Z,888.45
2019-03-11T03:02:32.647Z,888.47
2019-03-11T03:03:32.626Z,888.43
2019-03-11T03:04:32.610Z,888.47
2019-03-11T03:05:32.590Z,888.46
2019-03-11T03:06:32.578Z,888.53
2019-03-11T03:07:32.561Z,888.54
2019-03-11T03:08:32.544Z,888.52
2019-03-11T03:09:32.529Z,888.46
2019-03-11T03:10:32.514Z,888.43
2019-03-11T03:11:32.497Z,888.41
2019-03-11T03:12:32.488Z,888.38
2019-03-11T03:13:32.465Z,888.39
2019-03-11T03:14:32.446Z,888.41
2019-03-11T03:15:32.426Z,888.43
2019-03-11T03:16:32.410Z,888.42
2019-03-11T03:17:32.396Z,888.44
2019-03-11T03:18:32.381Z,888.45
2019-03-11T03:19:32.364Z,888.46
2019-03-11T03:20:32.345Z,888.50
2019-03-11T03:21:32.327Z,888.52
2019-03-11T03:22:32.314Z,888.51
2019-03-11T03:23:32.297Z,888.48
2019-03-11T03:24:32.277Z,888.43
2019-03-11T03:25:34.799Z,888.44
2019-03-11T03:26:32.254Z,888.47
2019-03-11T03:27:32.230Z,888.46
2019-03-11T03:28:32.251Z,888.47
2019-03-11T03:29:32.204Z,888.45
2019-03-11T03:30:32.184Z,888.46
2019-03-11T03:31:32.158Z,888.47
2019-03-11T03:32:32.155Z,888.44
2019-03-11T03:33:32.132Z,888.44
2019-03-11T03:34:32.123Z,888.45
2019-03-11T03:35:32.134Z,888.50
2019-03-11T03:36:32.084Z,888.49
2019-03-11T03:37:32.066Z,888.46
2019-03-11T03:38:32.053Z,888.47
2019-03-11T03:39:32.037Z,888.46
2019-03-11T03:40:32.020Z,888.45
2019-03-11T03:41:32.001Z,888.46
2019-03-11T03:42:32.017Z,888.46
2019-03-11T03:43:31.978Z,888.46
2019-03-11T03:44:31.953Z,888.46
2019-03-11T03:45:31.934Z,888.43
2019-03-11T03:46:31.930Z,888.43
2019-03-11T03:47:31.902Z,888.40
2019-03-11T03:48:31.982Z,888.45
2019-03-11T03:49:31.872Z,888.41
2019-03-11T03:50:31.857Z,888.38
2019-03-11T03:51:31.839Z,888.33
2019-03-11T03:52:31.826Z,888.35
2019-03-11T03:53:31.808Z,888.31
2019-03-11T03:54:31.790Z,888.33
2019-03-11T03:55:31.770Z,888.34
2019-03-11T03:56:31.758Z,888.34
2019-03-11T03:57:31.739Z,888.36
2019-03-11T03:58:31.725Z,888.40
2019-03-11T03:59:31.714Z,888.36
2019-03-11T04:00:31.690Z,888.30
2019-03-11T04:01:31.678Z,888.25
2019-03-11T04:02:31.654Z,888.27
2019-03-11T04:03:31.648Z,888.25
2019-03-11T04:04:31.624Z,888.23
2019-03-11T04:05:31.615Z,888.24
2019-03-11T04:06:31.596Z,888.27
2019-03-11T04:07:31.576Z,888.26
2019-03-11T04:08:31.565Z,888.30
2019-03-11T04:09:31.546Z,888.33
2019-03-11T04:10:32.800Z,888.29
2019-03-11T04:11:31.516Z,888.27
2019-03-11T04:12:31.498Z,888.26
2019-03-11T04:13:31.481Z,888.25
2019-03-11T04:14:31.469Z,888.26
2019-03-11T04:15:31.446Z,888.27
2019-03-11T04:16:31.467Z,888.24
2019-03-11T04:17:31.413Z,888.25
2019-03-11T04:18:31.396Z,888.29
2019-03-11T04:19:31.392Z,888.30
2019-03-11T04:20:31.364Z,888.35
2019-03-11T04:21:31.343Z,888.40
2019-03-11T04:22:31.333Z,888.39
2019-03-11T04:23:31.321Z,888.37
2019-03-11T04:24:31.297Z,888.41
2019-03-11T04:25:31.287Z,888.41
2019-03-11T04:26:31.273Z,888.46
2019-03-11T04:27:31.248Z,888.47
2019-03-11T04:28:31.234Z,888.49
2019-03-11T04:29:31.214Z,888.45
2019-03-11T04:30:31.202Z,888.46
2019-03-11T04:31:31.187Z,888.44
2019-03-11T04:32:31.172Z,888.42
2019-03-11T04:33:31.161Z,888.40
2019-03-11T04:34:31.137Z,888.36
2019-03-11T04:35:31.116Z,888.37
2019-03-11T04:36:31.102Z,888.31
2019-03-11T04:37:31.087Z,888.30
2019-03-11T04:38:31.069Z,888.30
2019-03-11T04:39:31.056Z,888.31
2019-03-11T04:40:31.041Z,888.32
2019-03-11T04:41:31.021Z,888.35
2019-03-11T04:42:31.083Z,888.36
2019-03-11T04:43:30.984Z,888.36
2019-03-11T04:44:30.969Z,888.38
2019-03-11T04:45:30.954Z,888.41
2019-03-11T04:46:30.939Z,888.39
2019-03-11T04:47:30.922Z,888.36
2019-03-11T04:48:30.909Z,888.36
2019-03-11T04:49:30.892Z,888.36
2019-03-11T04:50:30.875Z,888.33
2019-03-11T04:51:30.855Z,888.33
2019-03-11T04:52:30.843Z,888.28
2019-03-11T04:53:30.823Z,888.32
2019-03-11T04:54:30.808Z,888.30
2019-03-11T04:55:30.792Z,888.31
2019-03-11T04:56:30.777Z,888.26
2019-03-11T04:57:30.759Z,888.25
2019-03-11T04:58:30.747Z,888.24
2019-03-11T04:59:30.725Z,888.21
2019-03-11T05:00:30.709Z,888.22
2019-03-11T05:01:30.693Z,888.24
2019-03-11T05:02:30.679Z,888.23
2019-03-11T05:03:30.661Z,888.25
2019-03-11T05:04:30.652Z,888.29
2019-03-11T05:05:30.630Z,888.30
2019-03-11T05:06:30.608Z,888.26
2019-03-11T05:07:30.595Z,888.29
2019-03-11T05:08:30.578Z,888.29
2019-03-11T05:09:30.562Z,888.31
2019-03-11T05:10:30.551Z,888.26
2019-03-11T05:11:30.530Z,888.24
2019-03-11T05:12:30.514Z,888.22
2019-03-11T05:13:30.500Z,888.20
2019-03-11T05:14:30.477Z,888.17
2019-03-11T05:15:30.471Z,888.14
2019-03-11T05:16:30.451Z,888.10
2019-03-11T05:17:30.431Z,888.08
2019-03-11T05:18:30.416Z,888.12
2019-03-11T05:19:30.402Z,888.04
2019-03-11T05:20:30.383Z,888.05
2019-03-11T05:21:30.374Z,888.06
2019-03-11T05:22:30.345Z,888.06
2019-03-11T05:23:30.326Z,888.03
2019-03-11T05:24:30.312Z,887.99
2019-03-11T05:25:30.299Z,888.01
2019-03-11T05:26:30.279Z,888.00
2019-03-11T05:27:30.259Z,888.02
2019-03-11T05:28:30.257Z,888.08
2019-03-11T05:29:30.232Z,888.11
2019-03-11T05:30:30.216Z,888.07
2019-03-11T05:31:30.196Z,888.02
2019-03-11T05:32:30.175Z,888.01
2019-03-11T05:33:30.156Z,888.02
2019-03-11T05:34:30.154Z,888.01
2019-03-11T05:35:30.133Z,888.01
2019-03-11T05:36:30.116Z,887.99
2019-03-11T05:37:30.097Z,888.00
2019-03-11T05:38:30.078Z,888.03
2019-03-11T05:39:30.064Z,888.00
2019-03-11T05:40:30.045Z,888.00
2019-03-11T05:41:30.028Z,888.01
2019-03-11T05:42:30.015Z,888.00
2019-03-11T05:43:29.995Z,888.03
2019-03-11T05:44:29.977Z,887.99
2019-03-11T05:45:29.957Z,888.04
2019-03-11T05:46:29.945Z,888.02
2019-03-11T05:47:29.928Z,887.99
2019-03-11T05:48:29.908Z,888.00
2019-03-11T05:49:29.896Z,888.01
2019-03-11T05:50:29.880Z,887.99
2019-03-11T05:51:31.786Z,887.98
2019-03-11T05:52:29.842Z,888.00
2019-03-11T05:53:29.824Z,888.03
2019-03-11T05:54:29.821Z,888.01
2019-03-11T05:55:29.787Z,887.98
2019-03-11T05:56:29.771Z,887.94
2019-03-11T05:57:29.757Z,887.96
2019-03-11T05:58:29.739Z,887.95
2019-03-11T05:59:29.721Z,887.99
2019-03-11T06:00:29.703Z,888.02
2019-03-11T06:01:29.687Z,887.99
2019-03-11T06:02:29.672Z,887.99
2019-03-11T06:03:29.660Z,888.05
2019-03-11T06:04:29.649Z,888.00
2019-03-11T06:05:29.618Z,887.97
2019-03-11T06:06:29.598Z,887.96
2019-03-11T06:07:29.588Z,887.92
2019-03-11T06:08:29.568Z,887.89
2019-03-11T06:09:29.552Z,887.86
2019-03-11T06:10:29.533Z,887.85
2019-03-11T06:11:29.515Z,887.80
2019-03-11T06:12:29.500Z,887.74
2019-03-11T06:13:36.043Z,887.70
2019-03-11T06:14:29.467Z,887.63
2019-03-11T06:15:29.442Z,887.62
2019-03-11T06:16:29.427Z,887.63
2019-03-11T06:17:29.426Z,887.62
2019-03-11T06:18:29.399Z,887.54
2019-03-11T06:19:29.382Z,887.56
2019-03-11T06:20:29.359Z,887.61
2019-03-11T06:21:29.348Z,887.59
2019-03-11T06:22:29.324Z,887.60
2019-03-11T06:23:29.308Z,887.62
2019-03-11T06:24:30.553Z,887.62
2019-03-11T06:25:29.275Z,887.66
2019-03-11T06:26:29.260Z,887.75
2019-03-11T06:27:29.242Z,887.80
2019-03-11T06:28:29.226Z,887.78
2019-03-11T06:29:30.871Z,887.79
2019-03-11T06:30:29.197Z,887.82
2019-03-11T06:31:29.170Z,887.80
2019-03-11T06:32:29.174Z,887.74
2019-03-11T06:33:29.138Z,887.73
2019-03-11T06:34:29.127Z,887.69
2019-03-11T06:35:29.110Z,887.62
2019-03-11T06:36:29.091Z,887.57
2019-03-11T06:37:29.073Z,887.52
2019-03-11T06:38:29.056Z,887.46
2019-03-11T06:39:29.039Z,887.38
2019-03-11T06:40:29.023Z,887.42
2019-03-11T06:41:29.007Z,887.36
2019-03-11T06:42:28.986Z,887.40
2019-03-11T06:43:29.052Z,887.40
2019-03-11T06:44:28.951Z,887.43
2019-03-11T06:45:28.936Z,887.44
2019-03-11T06:46:28.929Z,887.46
2019-03-11T06:47:28.902Z,887.51
2019-03-11T06:48:28.886Z,887.47
2019-03-11T06:49:28.880Z,887.49
2019-03-11T06:50:28.858Z,887.47
2019-03-11T06:51:28.835Z,887.47
2019-03-11T06:52:28.821Z,887.46
2019-03-11T06:53:28.799Z,887.44
2019-03-11T06:54:28.789Z,887.46
2019-03-11T06:55:28.770Z,887.43
2019-03-11T06:56:28.757Z,887.46
2019-03-11T06:57:28.737Z,887.50
2019-03-11T06:58:28.718Z,887.45
2019-03-11T06:59:28.703Z,887.47
2019-03-11T07:00:28.687Z,887.44
2019-03-11T07:01:28.668Z,887.48
2019-03-11T07:02:28.651Z,887.53
2019-03-11T07:03:28.631Z,887.56
2019-03-11T07:04:28.621Z,887.58
2019-03-11T07:05:28.601Z,887.61
2019-03-11T07:06:28.588Z,887.57
2019-03-11T07:07:28.566Z,887.64
2019-03-11T07:08:28.550Z,887.64
2019-03-11T07:09:28.658Z,887.71
2019-03-11T07:10:28.516Z,887.71
2019-03-11T07:11:28.495Z,887.77
2019-03-11T07:12:28.486Z,887.76
2019-03-11T07:13:28.474Z,887.66
2019-03-11T07:14:28.457Z,887.72
2019-03-11T07:15:28.435Z,887.67
2019-03-11T07:16:28.419Z,887.64
2019-03-11T07:17:28.403Z,887.64
2019-03-11T07:18:28.397Z,887.65
2019-03-11T07:19:28.366Z,887.61
2019-03-11T07:20:28.369Z,887.56
2019-03-11T07:21:28.334Z,887.53
2019-03-11T07:22:28.322Z,887.50
2019-03-11T07:23:28.300Z,887.50
2019-03-11T07:24:28.283Z,887.49
2019-03-11T07:25:28.266Z,887.50
2019-03-11T07:26:28.250Z,887.52
2019-03-11T07:27:28.246Z,887.50
2019-03-11T07:28:28.216Z,887.56
2019-03-11T07:29:28.198Z,887.57
2019-03-11T07:30:28.191Z,887.57
2019-03-11T07:31:28.169Z,887.55
2019-03-11T07:32:28.148Z,887.57
2019-03-11T07:33:28.135Z,887.54
2019-03-11T07:34:28.139Z,887.55
2019-03-11T07:35:28.102Z,887.59
2019-03-11T07:36:28.088Z,887.59
2019-03-11T07:37:28.070Z,887.53
2019-03-11T07:38:28.057Z,887.52
2019-03-11T07:39:28.035Z,887.52
2019-03-11T07:40:30.042Z,887.52
2019-03-11T07:41:28.005Z,887.54
2019-03-11T07:42:27.991Z,887.57
2019-03-11T07:43:27.971Z,887.60
2019-03-11T07:44:27.955Z,887.63
2019-03-11T07:45:27.936Z,887.66
2019-03-11T07:46:27.918Z,887.62
2019-03-11T07:47:27.904Z,887.69
2019-03-11T07:48:27.888Z,887.69
2019-03-11T07:49:27.870Z,887.68
2019-03-11T07:50:27.848Z,887.67
2019-03-11T07:51:27.837Z,887.67
2019-03-11T07:52:27.816Z,887.68
2019-03-11T07:53:27.804Z,887.68
2019-03-11T07:54:35.523Z,887.69
2019-03-11T07:55:27.777Z,887.66
2019-03-11T07:56:27.751Z,887.66
2019-03-11T07:57:27.747Z,887.65
2019-03-11T07:58:27.717Z,887.67
2019-03-11T07:59:27.699Z,887.69
2019-03-11T08:00:27.694Z,887.70
2019-03-11T08:01:27.667Z,887.68
2019-03-11T08:02:27.654Z,887.68
2019-03-11T08:03:27.634Z,887.70
2019-03-11T08:04:27.618Z,887.70
2019-03-11T08:05:27.603Z,887.65
2019-03-11T08:06:27.593Z,887.63
2019-03-11T08:07:27.807Z,887.60
2019-03-11T08:08:27.545Z,887.55
2019-03-11T08:09:37.350Z,887.56
2019-03-11T08:10:27.512Z,887.55
2019-03-11T08:11:27.496Z,887.51
2019-03-11T08:12:27.478Z,887.49
2019-03-11T08:13:27.467Z,887.48
2019-03-11T08:14:27.994Z,887.44
2019-03-11T08:15:27.443Z,887.40
2019-03-11T08:16:27.413Z,887.48
2019-03-11T08:17:27.399Z,887.52
2019-03-11T08:18:35.070Z,887.42
2019-03-11T08:19:27.363Z,887.39
2019-03-11T08:20:27.349Z,887.40
2019-03-11T08:21:27.331Z,887.38
2019-03-11T08:22:27.315Z,887.35
2019-03-11T08:23:27.297Z,887.31
2019-03-11T08:24:27.280Z,887.24
2019-03-11T08:25:27.283Z,887.23
2019-03-11T08:26:27.244Z,887.22
2019-03-11T08:27:27.226Z,887.23
2019-03-11T08:28:27.214Z,887.20
2019-03-11T08:29:27.192Z,887.19
2019-03-11T08:30:27.172Z,887.07
2019-03-11T08:31:27.161Z,887.07
2019-03-11T08:32:27.140Z,887.01
2019-03-11T08:33:27.126Z,886.93
2019-03-11T08:34:27.117Z,886.94
2019-03-11T08:35:27.095Z,886.86
2019-03-11T08:36:27.077Z,886.82
2019-03-11T08:37:27.059Z,886.78
2019-03-11T08:38:27.043Z,886.77
2019-03-11T08:39:27.028Z,886.80
2019-03-11T08:40:27.012Z,886.87
2019-03-11T08:41:26.997Z,886.87
2019-03-11T08:42:26.974Z,886.89
2019-03-11T08:43:26.960Z,886.92
2019-03-11T08:44:26.944Z,886.91
2019-03-11T08:45:26.924Z,886.89
2019-03-11T08:46:26.909Z,886.86
2019-03-11T08:47:26.895Z,886.90
2019-03-11T08:48:26.870Z,886.88
2019-03-11T08:49:26.854Z,886.89
2019-03-11T08:50:26.843Z,886.87
2019-03-11T08:51:26.825Z,886.87
2019-03-11T08:52:26.803Z,886.87
2019-03-11T08:53:26.791Z,886.89
2019-03-11T08:54:26.779Z,886.86
2019-03-11T08:55:26.760Z,886.92
2019-03-11T08:56:26.744Z,886.89
2019-03-11T08:57:26.724Z,886.85
2019-03-11T08:58:26.715Z,886.79
2019-03-11T08:59:26.686Z,886.77
2019-03-11T09:00:26.676Z,886.70
2019-03-11T09:01:26.662Z,886.67
2019-03-11T09:02:26.642Z,886.64
2019-03-11T09:03:26.619Z,886.61
2019-03-11T09:04:26.607Z,886.63
2019-03-11T09:05:26.588Z,886.68
2019-03-11T09:06:26.569Z,886.71
2019-03-11T09:07:26.557Z,886.75
2019-03-11T09:08:26.538Z,886.78
2019-03-11T09:09:26.806Z,886.86
2019-03-11T09:10:26.504Z,886.93
2019-03-11T09:11:26.485Z,886.97
2019-03-11T09:12:26.471Z,886.93
2019-03-11T09:13:26.455Z,886.94
2019-03-11T09:14:26.436Z,886.96
2019-03-11T09:15:26.418Z,887.05
2019-03-11T09:16:26.398Z,887.12
2019-03-11T09:17:26.384Z,887.21
2019-03-11T09:18:27.107Z,887.30
2019-03-11T09:19:26.348Z,887.35
2019-03-11T09:20:26.328Z,887.42
2019-03-11T09:21:26.310Z,887.53
2019-03-11T09:22:26.298Z,887.74
2019-03-11T09:23:26.279Z,887.77
2019-03-11T09:24:26.261Z,887.93
2019-03-11T09:25:26.247Z,887.88
2019-03-11T09:26:26.228Z,887.85
2019-03-11T09:27:26.238Z,887.82
2019-03-11T09:28:26.281Z,887.83
2019-03-11T09:29:26.172Z,887.78
2019-03-11T09:30:26.157Z,887.86
2019-03-11T09:31:26.146Z,887.74
2019-03-11T09:32:26.121Z,887.68
2019-03-11T09:33:26.105Z,887.88
2019-03-11T09:34:26.110Z,887.93
2019-03-11T09:35:26.068Z,888.01
2019-03-11T09:36:26.050Z,888.01
2019-03-11T09:37:26.030Z,888.12
2019-03-11T09:38:26.021Z,888.19
2019-03-11T09:39:26.000Z,888.15
2019-03-11T09:40:25.982Z,888.16
2019-03-11T09:41:25.964Z,888.21
2019-03-11T09:42:25.952Z,888.22
2019-03-11T09:43:27.216Z,888.20
2019-03-11T09:44:25.905Z,888.25
2019-03-11T09:45:25.916Z,888.33
2019-03-11T09:46:25.874Z,888.19
2019-03-11T09:47:25.855Z,888.10
2019-03-11T09:48:25.850Z,888.14
2019-03-11T09:49:25.823Z,888.15
2019-03-11T09:50:25.803Z,888.14
2019-03-11T09:51:25.788Z,888.13
2019-03-11T09:52:25.770Z,888.03
2019-03-11T09:53:25.753Z,888.00
2019-03-11T09:54:25.734Z,888.02
2019-03-11T09:55:25.719Z,888.07
2019-03-11T09:56:25.698Z,888.11
2019-03-11T09:57:25.684Z,888.08
2019-03-11T09:58:25.665Z,888.05
2019-03-11T09:59:25.650Z,888.03
2019-03-11T10:00:25.628Z,888.00
2019-03-11T10:01:25.620Z,888.07
2019-03-11T10:02:25.597Z,888.09
2019-03-11T10:03:25.584Z,888.09
2019-03-11T10:04:25.563Z,888.03
2019-03-11T10:05:25.551Z,888.01
2019-03-11T10:06:25.531Z,888.02
2019-03-11T10:07:25.511Z,887.95
2019-03-11T10:08:25.491Z,887.98
2019-03-11T10:09:25.496Z,887.96
2019-03-11T10:10:25.465Z,887.92
2019-03-11T10:11:25.442Z,888.02
2019-03-11T10:12:25.420Z,888.02
2019-03-11T10:13:27.507Z,888.04
2019-03-11T10:14:25.391Z,888.04
2019-03-11T10:15:25.377Z,888.08
2019-03-11T10:16:25.362Z,888.06
2019-03-11T10:17:26.255Z,888.11
2019-03-11T10:18:25.320Z,888.13
2019-03-11T10:19:25.310Z,888.05
2019-03-11T10:20:25.292Z,887.98
2019-03-11T10:21:25.270Z,887.96
2019-03-11T10:22:25.256Z,888.07
2019-03-11T10:23:32.138Z,887.86
2019-03-11T10:24:25.217Z,888.07
2019-03-11T10:25:25.201Z,887.94
2019-03-11T10:26:25.193Z,887.85
2019-03-11T10:27:25.171Z,887.86
2019-03-11T10:28:25.151Z,887.88
2019-03-11T10:29:25.136Z,887.93
2019-03-11T10:30:25.130Z,887.90
2019-03-11T10:31:25.100Z,887.98
2019-03-11T10:32:25.083Z,887.97
2019-03-11T10:33:25.062Z,887.91
2019-03-11T10:34:25.049Z,887.85
2019-03-11T10:35:31.843Z,887.81
2019-03-11T10:36:25.010Z,887.78
2019-03-11T10:37:24.996Z,887.75
2019-03-11T10:38:24.982Z,887.75
2019-03-11T10:39:24.962Z,887.51
2019-03-11T10:40:24.944Z,887.67
2019-03-11T10:41:24.926Z,887.70
2019-03-11T10:42:24.915Z,887.69
2019-03-11T10:43:24.900Z,887.68
2019-03-11T10:44:24.879Z,887.64
2019-03-11T10:45:31.183Z,887.66
2019-03-11T10:46:24.846Z,887.59
2019-03-11T10:47:24.826Z,887.58
2019-03-11T10:48:24.819Z,887.56
2019-03-11T10:49:24.799Z,887.58
2019-03-11T10:50:24.776Z,887.56
2019-03-11T10:51:24.756Z,887.53
2019-03-11T10:52:24.744Z,887.51
2019-03-11T10:53:24.726Z,887.50
2019-03-11T10:54:24.705Z,887.45
2019-03-11T10:55:24.693Z,887.42
2019-03-11T10:56:24.674Z,887.41
2019-03-11T10:57:24.673Z,887.41
2019-03-11T10:58:24.643Z,887.32
2019-03-11T10:59:24.629Z,887.33
2019-03-11T11:00:24.611Z,887.35
2019-03-11T11:01:24.589Z,887.36
2019-03-11T11:02:24.577Z,887.34
2019-03-11T11:03:24.565Z,887.34
2019-03-11T11:04:24.542Z,887.37
2019-03-11T11:05:24.530Z,887.36
2019-03-11T11:06:24.506Z,887.35
2019-03-11T11:07:24.493Z,887.37
2019-03-11T11:08:24.480Z,887.35
2019-03-11T11:09:24.462Z,887.36
2019-03-11T11:10:24.442Z,887.34
2019-03-11T11:11:24.424Z,887.31
2019-03-11T11:12:24.408Z,887.34
2019-03-11T11:13:24.394Z,887.36
2019-03-11T11:14:24.375Z,887.37
2019-03-11T11:15:24.360Z,887.37
2019-03-11T11:16:24.347Z,887.42
2019-03-11T11:17:24.333Z,887.37
2019-03-11T11:18:24.316Z,887.39
2019-03-11T11:19:24.296Z,887.39
2019-03-11T11:20:24.276Z,887.50
2019-03-11T11:21:24.258Z,887.53
2019-03-11T11:22:24.246Z,887.49
2019-03-11T11:23:24.236Z,887.41
2019-03-11T11:24:24.212Z,887.45
2019-03-11T11:25:24.195Z,887.44
2019-03-11T11:26:24.179Z,887.48
2019-03-11T11:27:24.168Z,887.46
2019-03-11T11:28:24.147Z,887.46
2019-03-11T11:29:24.133Z,887.46
2019-03-11T11:30:24.114Z,887.44
2019-03-11T11:31:24.096Z,887.47
2019-03-11T11:32:24.076Z,887.44
2019-03-11T11:33:24.067Z,887.45
2019-03-11T11:34:24.048Z,887.49
2019-03-11T11:35:24.027Z,887.54
2019-03-11T11:36:24.018Z,887.57
2019-03-11T11:37:23.990Z,887.60
2019-03-11T11:38:23.985Z,887.46
2019-03-11T11:39:23.957Z,887.49
2019-03-11T11:40:23.945Z,887.51
2019-03-11T11:41:23.928Z,887.45
2019-03-11T11:42:23.913Z,887.44
2019-03-11T11:43:23.891Z,887.42
2019-03-11T11:44:23.874Z,887.37
2019-03-11T11:45:23.860Z,887.31
2019-03-11T11:46:23.842Z,887.25
2019-03-11T11:47:23.816Z,887.30
2019-03-11T11:48:23.812Z,887.30
2019-03-11T11:49:23.787Z,887.29
2019-03-11T11:50:23.771Z,887.28
2019-03-11T11:51:23.763Z,887.25
2019-03-11T11:52:23.736Z,887.21
2019-03-11T11:53:25.286Z,887.23
2019-03-11T11:54:23.703Z,887.19
2019-03-11T11:55:23.701Z,887.17
2019-03-11T11:56:23.670Z,887.12
2019-03-11T11:57:23.663Z,887.09
2019-03-11T11:58:23.642Z,887.10
2019-03-11T11:59:23.619Z,887.05
2019-03-11T12:00:23.609Z,887.01
2019-03-11T12:01:23.595Z,887.00
2019-03-11T12:02:23.571Z,886.99
2019-03-11T12:03:23.566Z,886.96
2019-03-11T12:04:23.541Z,886.94
2019-03-11T12:05:23.520Z,886.94
2019-03-11T12:06:23.504Z,886.93
2019-03-11T12:07:23.524Z,886.87
2019-03-11T12:08:23.474Z,886.85
2019-03-11T12:09:23.463Z,886.84
2019-03-11T12:10:23.444Z,886.83
2019-03-11T12:11:23.419Z,886.84
2019-03-11T12:12:23.402Z,886.82
2019-03-11T12:13:23.387Z,886.79
2019-03-11T12:14:23.378Z,886.79
2019-03-11T12:15:23.355Z,886.75
2019-03-11T12:16:23.340Z,886.79
2019-03-11T12:17:23.635Z,886.86
2019-03-11T12:18:23.310Z,886.89
2019-03-11T12:19:23.297Z,886.85
2019-03-11T12:20:23.272Z,886.82
2019-03-11T12:21:23.258Z,886.83
2019-03-11T12:22:23.241Z,886.88
2019-03-11T12:23:23.227Z,886.94
2019-03-11T12:24:23.212Z,886.88
2019-03-11T12:25:23.193Z,886.89
2019-03-11T12:26:23.175Z,886.93
2019-03-11T12:27:23.159Z,886.93
2019-03-11T12:28:23.143Z,886.94